deformed-offering

Current conditions - KSJC (San Jose International)


Coded METAR: 2017/03/26 10:53 KSJC 261053Z AUTO 13003KT 10SM CLR 10/07 A3010 RMK AO2 SLP192 T01000067 $

Weather Report

Report issued: Sun 26th Mar at 03:53 PDT

Wind: light air from the Southeast (130 degrees) at 3 knots (3 mph, 6 kph, Force 1)
Visibility: 10 statute miles
Cloud: Sky clear
Temperature: 50F / 10C
Dewpoint: 45F / 7C
Humidity: 82%
Pressure: 30.10 inches of mercury

Current conditions - KNUQ (Moffett NAS)


Coded METAR: 2017/03/26 10:56 KNUQ 261056Z 00000KT 10SM CLR 10/07 A3011 RMK AO2 SLP197 T01000072

Weather Report

Report issued: Sun 26th Mar at 03:56 PDT

Wind: calm 0 knots (0 mph, 0 kph, Force 0)
Visibility: 10 statute miles
Cloud: Sky clear
Temperature: 50F / 10C
Dewpoint: 45F / 7C
Humidity: 82%
Pressure: 30.11 inches of mercury

Current conditions - KRHV (Reid-Hillview Airport - San Jose)


Coded METAR: 2017/03/26 04:53 KRHV 260453Z 34005KT 10SM SKC 12/09 A3017

Weather Report

Report issued: Sun 26th Mar at 21:53 PDT

Wind: light breeze from North-Northwest (340 degrees) at 5 knots (6 mph, 9 kph, Force 2)
Visibility: 10 statute miles
Cloud: Sky clear
Temperature: 54F / 12C
Dewpoint: 48F / 9C
Humidity: 82%
Pressure: 30.17 inches of mercury

Current conditions - KPAO (Palo Alto Airport)


Coded METAR: 2017/03/26 03:47 KPAO 260347Z 30010KT 10SM FEW100 13/08 A3014 RMK LAST

Weather Report

Report issued: Sun 26th Mar at 20:47 PDT

Wind: gentle breeze from West-Northwest (300 degrees) at 10 knots (12 mph, 19 kph, Force 3)
Visibility: 10 statute miles
Cloud: a few clouds at 10000 feet
Temperature: 55F / 13C
Dewpoint: 46F / 8C
Humidity: 72%
Pressure: 30.14 inches of mercury

 

deformed-offering